sensor_id;sensor_type;location;lat;lon;timestamp;pressure;altitude;pressure_sealevel;temperature;humidity
71642;BME280;60657;50.122;14.468;2023-04-10T00:00:54;99155.76018029422;;;9.378576333257037;74.99107347219044
71642;BME280;60657;50.122;14.468;2023-04-10T00:04:05;99144.95087711592;;;9.38391699092088;75.47364003967346
71642;BME280;60657;50.122;14.468;2023-04-10T00:07:17;99140.95291506346;;;9.485389486533911;75.48699168383307
71642;BME280;60657;50.122;14.468;2023-04-10T00:10:28;99138.5789733059;;;9.589532310978868;75.37827115281911
71642;BME280;60657;50.122;14.468;2023-04-10T00:13:40;99138.5789733059;;;9.602883955138473;74.95674067292286
71642;BME280;60657;50.122;14.468;2023-04-10T00:16:52;99140.34174207534;;;9.624246585793848;74.70687418936446
71642;BME280;60657;50.122;14.468;2023-04-10T00:20:04;99129.44224867216;;;9.576180666819255;74.97772182803082
71642;BME280;60657;50.122;14.468;2023-04-10T00:23:16;99135.002401089;;;9.458686198214693;75.58045319295033
71642;BME280;60657;50.122;14.468;2023-04-10T00:26:28;99127.63320654875;;;9.544136720836192;75.17036697947661
71642;BME280;60657;50.122;14.468;2023-04-10T00:29:39;99127.58730599383;;;9.557488364995805;75.43167772945755
71642;BME280;60657;50.122;14.468;2023-04-10T00:32:51;99119.3345148873;;;9.62157625696193;75.92950331883726
71642;BME280;60657;50.122;14.468;2023-04-10T00:36:02;99120.17118831702;;;9.602883955138473;75.81315327687496
71642;BME280;60657;50.122;14.468;2023-04-10T00:39:15;99119.07970415201;;;9.39192797741665;77.03196765087358
71642;BME280;60657;50.122;14.468;2023-04-10T00:42:26;99120.96233387422;;;9.429312581063556;76.3949034866865
71642;BME280;60657;50.122;14.468;2023-04-10T00:45:38;99123.192447295;;;9.322499427786681;76.80498970016022
71642;BME280;60657;50.122;14.468;2023-04-10T00:48:51;99116.07811534402;;;9.496070801861599;76.62188143739986
71642;BME280;60657;50.122;14.468;2023-04-10T00:52:04;99110.31100461812;;;9.514763103685056;75.92759594110018
71642;BME280;60657;50.122;14.468;2023-04-10T00:55:16;99105.33588498678;;;9.528114747844661;74.98344396124209
71642;BME280;60657;50.122;14.468;2023-04-10T00:58:29;99105.15717760878;;;9.47737850003815;75.9981689173724
71642;BME280;60657;50.122;14.468;2023-04-10T01:01:40;99099.32384562813;;;9.46936751354238;74.81177996490425
71642;BME280;60657;50.122;14.468;2023-04-10T01:04:52;99090.32330723919;;;9.528114747844661;74.302510109102
71642;BME280;60657;50.122;14.468;2023-04-10T01:08:06;99096.11226988085;;;9.522774090180818;74.52758068207828
71642;BME280;60657;50.122;14.468;2023-04-10T01:11:39;99093.53582975957;;;9.528114747844661;76.66384374761577
71642;BME280;60657;50.122;14.468;2023-04-10T01:15:03;99092.63154200578;;;9.504081788357368;76.99191271839474
71642;BME280;60657;50.122;14.468;2023-04-10T01:18:21;99092.53997013456;;;9.399938963912412;77.31235217822538
71642;BME280;60657;50.122;14.468;2023-04-10T01:21:37;99089.10070473317;;;9.293125810635537;77.48020141908904
71642;BME280;60657;50.122;14.468;2023-04-10T01:24:55;99098.08979313484;;;9.271763179980162;77.59464408331426
71642;BME280;60657;50.122;14.468;2023-04-10T01:28:39;99103.75173219784;;;9.159609369039444;78.1630426489662
71642;BME280;60657;50.122;14.468;2023-04-10T01:32:02;99100.47846526754;;;9.19699397268635;78.77912565804532
71642;BME280;60657;50.122;14.468;2023-04-10T01:35:23;99087.92761150682;;;9.098191805905245;79.97886625467308
71642;BME280;60657;50.122;14.468;2023-04-10T01:38:39;99095.23363440766;;;8.953994048981457;81.01457236591135
71642;BME280;60657;50.122;14.468;2023-04-10T01:41:53;99094.32048595451;;;8.908598458838789;81.44182497901885
71642;BME280;60657;50.122;14.468;2023-04-10T01:45:11;99093.95416399908;;;8.745708400091551;82.2009613183795
71642;BME280;60657;50.122;14.468;2023-04-10T01:48:29;99085.84906377866;;;8.81513694972152;82.11322194247349
71642;BME280;60657;50.122;14.468;2023-04-10T01:51:41;99090.73929531754;;;8.799114976729989;82.30586709391928
71642;BME280;60657;50.122;14.468;2023-04-10T01:54:54;99099.05567249231;;;8.801785305561914;82.4355687800412
71642;BME280;60657;50.122;14.468;2023-04-10T01:58:08;99104.36271780118;;;8.98603799496452;82.15327687495231
71642;BME280;60657;50.122;14.468;2023-04-10T02:01:21;99096.09570500716;;;9.047455558098726;81.7126726176852
71642;BME280;60657;50.122;14.468;2023-04-10T02:04:32;99100.35491261432;;;9.071488517586026;81.63828488593882
71642;BME280;60657;50.122;14.468;2023-04-10T02:07:45;99089.17063143729;;;9.223697261005569;81.13664454108492
71642;BME280;60657;50.122;14.468;2023-04-10T02:11:10;99086.09696139494;;;9.34119172961013;80.8581673914702
71642;BME280;60657;50.122;14.468;2023-04-10T02:14:26;99093.69097787312;;;9.458686198214693;80.44998855573358
71642;BME280;60657;50.122;14.468;2023-04-10T02:17:42;99099.43605525176;;;9.378576333257037;80.29358358129244
71642;BME280;60657;50.122;14.468;2023-04-10T02:20:55;99090.23468095642;;;9.397268635080493;80.40993362325474
71642;BME280;60657;50.122;14.468;2023-04-10T02:24:07;99096.02287100707;;;9.351873044937818;80.38323033493553
71642;BME280;60657;50.122;14.468;2023-04-10T02:27:25;99089.19377098874;;;9.250400549324787;80.89250019073778
71642;BME280;60657;50.122;14.468;2023-04-10T02:30:38;99099.85885729859;;;9.148928053711757;81.08896009765775
71642;BME280;60657;50.122;14.468;2023-04-10T02:33:49;99095.81676702919;;;9.175631342030975;81.04127565423056
71642;BME280;60657;50.122;14.468;2023-04-10T02:37:01;99095.02658122816;;;9.245059891660944;81.09849698634318
71642;BME280;60657;50.122;14.468;2023-04-10T02:40:13;99093.35343351602;;;9.253070878156713;81.6993209735256
71642;BME280;60657;50.122;14.468;2023-04-10T02:43:24;99094.120235455;;;9.210345616845963;81.55245288776989
71642;BME280;60657;50.122;14.468;2023-04-10T02:46:36;99092.40007166831;;;9.175631342030975;81.80994888227664
71642;BME280;60657;50.122;14.468;2023-04-10T02:49:48;99103.75173219784;;;9.03410391393912;82.14946211947814
71642;BME280;60657;50.122;14.468;2023-04-10T02:52:59;99100.25454816753;;;9.039444571602964;82.14373998626688
71642;BME280;60657;50.122;14.468;2023-04-10T02:56:11;99101.46063876123;;;9.188982986190588;81.59060044251163
71642;BME280;60657;50.122;14.468;2023-04-10T02:59:22;99112.24196223915;;;9.127565423056382;81.32738231479362
71642;BME280;60657;50.122;14.468;2023-04-10T03:02:34;99111.28303308239;;;9.087510490577557;81.4914168001831
71642;BME280;60657;50.122;14.468;2023-04-10T03:05:46;99108.08227499583;;;9.132906080720225;80.91538872358282
71642;BME280;60657;50.122;14.468;2023-04-10T03:08:58;99105.27560064814;;;8.98603799496452;81.47425040054932
71642;BME280;60657;50.122;14.468;2023-04-10T03:12:09;99107.98492997364;;;9.148928053711757;80.78759441519799
71642;BME280;60657;50.122;14.468;2023-04-10T03:15:21;99109.6585291991;;;9.127565423056382;80.6826886396582
71642;BME280;60657;50.122;14.468;2023-04-10T03:18:32;99107.1969952686;;;9.122224765392538;80.67887388418403
71642;BME280;60657;50.122;14.468;2023-04-10T03:21:44;99111.47744491357;;;9.186312657358663;80.42328526741436
71642;BME280;60657;50.122;14.468;2023-04-10T03:24:56;99106.45696016625;;;9.140917067215995;80.108567940795
71642;BME280;60657;50.122;14.468;2023-04-10T03:28:08;99105.59616004051;;;9.164950026703288;80.07042038605326
71642;BME280;60657;50.122;14.468;2023-04-10T03:31:19;99102.0781521162;;;9.116884107728694;80.47859922178988
71642;BME280;60657;50.122;14.468;2023-04-10T03:34:31;99112.95669783026;;;9.19699397268635;80.07042038605326
71642;BME280;60657;50.122;14.468;2023-04-10T03:37:43;99108.89483730233;;;9.191653315022506;79.90829327840085
71642;BME280;60657;50.122;14.468;2023-04-10T03:40:54;99109.0387713223;;;9.271763179980162;79.55733577477683
71642;BME280;60657;50.122;14.468;2023-04-10T03:44:06;99112.21771175486;;;9.16227969787137;79.85870145723659
71642;BME280;60657;50.122;14.468;2023-04-10T03:47:17;99106.26213118905;;;9.114213778896776;80.13908598458839
71642;BME280;60657;50.122;14.468;2023-04-10T03:50:29;99111.23358391922;;;9.202334630350194;79.74807354848554
71642;BME280;60657;50.122;14.468;2023-04-10T03:53:41;99107.98492997364;;;9.151598382543682;79.99221789883268
71642;BME280;60657;50.122;14.468;2023-04-10T03:56:53;99108.08227499583;;;9.183642328526744;79.87968261234455
71642;BME280;60657;50.122;14.468;2023-04-10T04:00:05;99108.03377173502;;;9.114213778896776;80.11810482948043
71642;BME280;60657;50.122;14.468;2023-04-10T04:03:17;99112.90728340058;;;9.186312657358663;80.152437628748
71642;BME280;60657;50.122;14.468;2023-04-10T04:06:29;99117.77851312181;;;9.124895094224463;80.26306553749905
71642;BME280;60657;50.122;14.468;2023-04-10T04:09:41;99116.0793564054;;;9.084840161745632;80.67124437323568
71642;BME280;60657;50.122;14.468;2023-04-10T04:12:53;99110.955566203;;;8.996719310292207;81.30830853742275
71642;BME280;60657;50.122;14.468;2023-04-10T04:16:05;99108.4704828364;;;9.031433585107195;80.9916838330663
71642;BME280;60657;50.122;14.468;2023-04-10T04:19:17;99116.78852850874;;;9.031433585107195;81.00885023270008
71642;BME280;60657;50.122;14.468;2023-04-10T04:22:29;99115.1659745183;;;9.079499504081788;80.79331654840925
71642;BME280;60657;50.122;14.468;2023-04-10T04:25:40;99125.10696798039;;;9.063477531090257;80.66361486228733
71642;BME280;60657;50.122;14.468;2023-04-10T04:28:52;99122.67312167372;;;9.060807202258339;80.41565575646601
71642;BME280;60657;50.122;14.468;2023-04-10T04:32:04;99118.56479745817;;;9.084840161745632;80.08377203021287
71642;BME280;60657;50.122;14.468;2023-04-10T04:35:16;99125.41102780763;;;9.11154345006485;80.28786144808117
71642;BME280;60657;50.122;14.468;2023-04-10T04:38:28;99125.41102780763;;;9.132906080720225;80.37750820172427
71642;BME280;60657;50.122;14.468;2023-04-10T04:41:39;99132.71734170507;;;9.058136873426413;80.92111085679407
71642;BME280;60657;50.122;14.468;2023-04-10T04:44:51;99147.12434153087;;;8.817807278553445;82.09033340962844
71642;BME280;60657;50.122;14.468;2023-04-10T04:48:03;99149.69106231755;;;8.820477607385364;82.5233081559472
71642;BME280;60657;50.122;14.468;2023-04-10T04:51:14;99143.60850904114;;;8.72968642710002;83.28435187304494
71642;BME280;60657;50.122;14.468;2023-04-10T04:54:26;99138.96901954735;;;8.865873197528039;82.92385748073548
71642;BME280;60657;50.122;14.468;2023-04-10T04:57:38;99147.31457017253;;;8.975356679636832;82.71213855191883
71642;BME280;60657;50.122;14.468;2023-04-10T05:00:50;99151.63407840197;;;9.055466544594495;82.3897917143511
71642;BME280;60657;50.122;14.468;2023-04-10T05:04:01;99144.1518643869;;;9.039444571602964;81.67261768520638
71642;BME280;60657;50.122;14.468;2023-04-10T05:07:13;99149.98598956563;;;9.0688181887541;81.5505455100328
71642;BME280;60657;50.122;14.468;2023-04-10T05:10:25;99147.50065817541;;;9.066147859922182;81.80422674906538
71642;BME280;60657;50.122;14.468;2023-04-10T05:13:37;99149.12236748269;;;9.058136873426413;81.6993209735256
71642;BME280;60657;50.122;14.468;2023-04-10T05:16:48;99150.06464916428;;;9.098191805905245;81.5658045319295
71642;BME280;60657;50.122;14.468;2023-04-10T05:20:00;99152.44487556764;;;9.079499504081788;81.4494544899672
71642;BME280;60657;50.122;14.468;2023-04-10T05:23:12;99159.06339921078;;;9.047455558098726;81.45899137865263
71642;BME280;60657;50.122;14.468;2023-04-10T05:26:23;99157.41543188489;;;9.020752269779507;81.66498817425803
71642;BME280;60657;50.122;14.468;2023-04-10T05:29:35;99166.41112010294;;;8.972686350804914;81.99114976729992
71642;BME280;60657;50.122;14.468;2023-04-10T05:32:47;99158.19936401056;;;9.023422598611432;81.4761577782864
71642;BME280;60657;50.122;14.468;2023-04-10T05:35:58;99169.65149158372;;;8.978027008468757;81.45899137865263
71642;BME280;60657;50.122;14.468;2023-04-10T05:39:10;99170.51265992728;;;9.346532387273975;80.75326161593041
71642;BME280;60657;50.122;14.468;2023-04-10T05:42:22;99164.36269914113;;;9.586861982146942;79.9178301670863
71642;BME280;60657;50.122;14.468;2023-04-10T05:45:34;99165.35724158096;;;9.688334477759973;79.43907835507744
71642;BME280;60657;50.122;14.468;2023-04-10T05:48:45;99174.94088790953;;;9.496070801861599;79.65461203936827
71642;BME280;60657;50.122;14.468;2023-04-10T05:51:57;99184.12549776681;;;9.57885099565118;79.87586785687037
71642;BME280;60657;50.122;14.468;2023-04-10T05:55:09;99173.72625375392;;;9.80849927519646;79.17586022735942
71642;BME280;60657;50.122;14.468;2023-04-10T05:58:21;99182.0068007551;;;9.779125658045317;79.01754787518121
71642;BME280;60657;50.122;14.468;2023-04-10T06:01:32;99175.44415677697;;;9.904631113145648;79.18158236057069
71642;BME280;60657;50.122;14.468;2023-04-10T06:04:44;99177.26937920772;;;9.93667505912871;78.66849774929427
71642;BME280;60657;50.122;14.468;2023-04-10T06:07:56;99179.69407033749;;;9.968719005111772;78.60746166170749
71642;BME280;60657;50.122;14.468;2023-04-10T06:11:08;99184.5844828193;;;9.944686045624472;78.81536583504997
71642;BME280;60657;50.122;14.468;2023-04-10T06:14:20;99173.87908228168;;;10.043488212405585;78.34805828946365
71642;BME280;60657;50.122;14.468;2023-04-10T06:17:31;99179.60681566178;;;9.907301441977566;78.80964370183871
71642;BME280;60657;50.122;14.468;2023-04-10T06:20:43;99173.31512210987;;;10.102235446707866;77.9265278095674
71642;BME280;60657;50.122;14.468;2023-04-10T06:23:55;99164.31231975858;;;10.286488136110478;77.48401617456321
71642;BME280;60657;50.122;14.468;2023-04-10T06:27:07;99173.49563618349;;;10.281147478446634;77.33333333333333
71642;BME280;60657;50.122;14.468;2023-04-10T06:30:19;99181.45370991873;;;10.115587090867479;78.46440833142596
71642;BME280;60657;50.122;14.468;2023-04-10T06:33:31;99183.23275135635;;;10.195696955825134;77.65186541542687
71642;BME280;60657;50.122;14.468;2023-04-10T06:36:43;99173.7995356504;;;10.486762798504614;76.08018616006714
71642;BME280;60657;50.122;14.468;2023-04-10T06:40:00;99175.63378875321;;;10.815213244831007;74.9205004959182
71642;BME280;60657;50.122;14.468;2023-04-10T06:47:53;99179.03170537588;;;10.713740749217976;74.73929961089495
71642;BME280;60657;50.122;14.468;2023-04-10T06:51:05;99189.12022224707;;;10.729762722209507;72.81284809643702
71642;BME280;60657;50.122;14.468;2023-04-10T06:54:18;99183.4302343013;;;10.9487296864271;71.75616083009079
71642;BME280;60657;50.122;14.468;2023-04-10T06:57:29;99183.49388751872;;;11.068894483863588;72.47142748149844
71642;BME280;60657;50.122;14.468;2023-04-10T07:00:41;99182.79589167515;;;11.20241092545968;72.58968490119783
71642;BME280;60657;50.122;14.468;2023-04-10T07:03:53;99182.25566543499;;;11.504158083466848;68.79209582665752
71642;BME280;60657;50.122;14.468;2023-04-10T07:07:05;99190.66788026699;;;11.720454718852523;69.6027313649195
71642;BME280;60657;50.122;14.468;2023-04-10T07:10:17;99178.33478732425;;;11.864652475776303;68.6032654306859
71642;BME280;60657;50.122;14.468;2023-04-10T07:13:29;99175.90554588185;;;11.90203707942321;68.74441138323033
71642;BME280;60657;50.122;14.468;2023-04-10T07:16:40;99165.25303779106;;;12.075608453498134;66.86564431219959
71642;BME280;60657;50.122;14.468;2023-04-10T07:19:52;99174.37812228581;;;12.142366674296177;66.65201800564584
71642;BME280;60657;50.122;14.468;2023-04-10T07:23:04;99167.95473758376;;;12.64171816586557;65.16235599298085
71642;BME280;60657;50.122;14.468;2023-04-10T07:26:16;99159.74975609784;;;12.943465323872736;63.243533989471274
71642;BME280;60657;50.122;14.468;2023-04-10T07:29:28;99168.15858944664;;;13.133058670939192;62.7838559548333
71642;BME280;60657;50.122;14.468;2023-04-10T07:32:40;99169.87465254393;;;13.421454184786754;63.285496299687196
71642;BME280;60657;50.122;14.468;2023-04-10T07:35:52;99166.56791979869;;;13.68848706797894;60.7505912870985
71642;BME280;60657;50.122;14.468;2023-04-10T07:39:03;99157.39879104996;;;13.91813534752422;59.705348287174786
71642;BME280;60657;50.122;14.468;2023-04-10T07:42:15;99141.52120055346;;;14.24124513618677;58.82986190585183
71642;BME280;60657;50.122;14.468;2023-04-10T07:45:27;99148.18072339208;;;14.22255283436332;56.953002212558175
71642;BME280;60657;50.122;14.468;2023-04-10T07:48:40;99148.99766603048;;;14.318684672312507;57.03120469977875
71642;BME280;60657;50.122;14.468;2023-04-10T07:51:52;99139.71478615016;;;14.6231021591516;57.5976958876936
71642;BME280;60657;50.122;14.468;2023-04-10T07:55:04;99150.50874360096;;;14.964904249637598;54.51728084229801
71642;BME280;60657;50.122;14.468;2023-04-10T07:58:17;99141.3661430629;;;14.612420843823912;54.3265430685893
71642;BME280;60657;50.122;14.468;2023-04-10T08:01:29;99132.06808769765;;;15.042343785763336;54.96742198825055
71642;BME280;60657;50.122;14.468;2023-04-10T08:04:40;99133.52775539977;;;15.373464560921647;52.44968337529564
71642;BME280;60657;50.122;14.468;2023-04-10T08:07:52;99125.1273364761;;;15.349431601434347;53.199282825970855
71642;BME280;60657;50.122;14.468;2023-04-10T08:11:06;99126.85178005925;;;15.266651407644773;53.97749294270237
71642;BME280;60657;50.122;14.468;2023-04-10T08:14:32;99124.91187550625;;;15.67788204776074;53.81345845731288
71642;BME280;60657;50.122;14.468;2023-04-10T08:17:44;99131.45482276443;;;15.795376516365302;52.4267948424506
71642;BME280;60657;50.122;14.468;2023-04-10T08:20:56;99116.89739046273;;;16.18791485465782;50.71015487907225
71642;BME280;60657;50.122;14.468;2023-04-10T08:24:08;99126.25912106063;;;15.848783093003739;50.435492484931714
71642;BME280;60657;50.122;14.468;2023-04-10T08:27:20;99120.89024058344;;;16.428244449530787;49.63057907988098
71642;BME280;60657;50.122;14.468;2023-04-10T08:30:32;99116.89739046273;;;16.217288471808956;48.79705500877394
71642;BME280;60657;50.122;14.468;2023-04-10T08:33:44;99117.01430779947;;;15.92622262912947;50.11314564736401
71642;BME280;60657;50.122;14.468;2023-04-10T08:36:55;99116.83683369956;;;16.177233539330132;48.316395819028
71642;BME280;60657;50.122;14.468;2023-04-10T08:40:08;99109.92108927092;;;16.583123521782255;47.15671015487907
71642;BME280;60657;50.122;14.468;2023-04-10T08:43:20;99108.62674069473;;;16.844815747310598;47.34935530632487
71642;BME280;60657;50.122;14.468;2023-04-10T08:46:32;99110.51187884997;;;16.660563057907986;46.7103837644007
71642;BME280;60657;50.122;14.468;2023-04-10T08:49:48;99109.22561497746;;;16.89288166628519;46.21446555275807
71642;BME280;60657;50.122;14.468;2023-04-10T08:53:07;99107.37840887668;;;17.20798046845197;45.962691691462574
71642;BME280;60657;50.122;14.468;2023-04-10T08:56:22;99107.52142980753;;;17.240024414435034;46.20111390859846
71642;BME280;60657;50.122;14.468;2023-04-10T08:59:36;99102.94952329533;;;16.63118944075685;47.803311207751584
71642;BME280;60657;50.122;14.468;2023-04-10T09:02:48;99111.84125111763;;;16.28938735027085;47.3150225070573
71642;BME280;60657;50.122;14.468;2023-04-10T09:06:01;99109.18422205486;;;15.352101930266272;50.03303578240635
71642;BME280;60657;50.122;14.468;2023-04-10T09:09:14;99117.73104272505;;;14.908827344167236;51.341496910048065
71642;BME280;60657;50.122;14.468;2023-04-10T09:12:26;99099.24950910917;;;15.045014114595254;52.4706645304036
71642;BME280;60657;50.122;14.468;2023-04-10T09:15:54;99107.46370044153;;;15.357442587930116;50.99244678416113
71642;BME280;60657;50.122;14.468;2023-04-10T09:19:06;99092.87188654495;;;16.746013580529485;48.54337376974136
71642;BME280;60657;50.122;14.468;2023-04-10T09:22:18;99091.3831558742;;;17.34416723887999;46.61120012207218
71642;BME280;60657;50.122;14.468;2023-04-10T09:25:40;99077.93847498897;;;17.768749523155563;45.583123521782255
71642;BME280;60657;50.122;14.468;2023-04-10T09:28:57;99075.97095690868;;;18.038452735179675;42.86129549095903
71642;BME280;60657;50.122;14.468;2023-04-10T09:32:10;99099.95242377502;;;17.111848630502784;44.35477225909819
71642;BME280;60657;50.122;14.468;2023-04-10T09:35:23;99081.97226282394;;;17.19996948195621;44.28992141603723
71642;BME280;60657;50.122;14.468;2023-04-10T09:38:49;99084.79218954402;;;16.81811245899138;45.00709544518197
71642;BME280;60657;50.122;14.468;2023-04-10T09:42:02;99081.4858927626;;;16.956969558251316;44.461585412375065
71642;BME280;60657;50.122;14.468;2023-04-10T09:45:14;99058.27667808156;;;17.25070572976272;44.564583810177766
71642;BME280;60657;50.122;14.468;2023-04-10T09:48:26;99071.00372007463;;;17.309452964065002;45.04333562218662
71642;BME280;60657;50.122;14.468;2023-04-10T09:51:38;99063.61006275199;;;17.119859616998554;45.30846112764172
71642;BME280;60657;50.122;14.468;2023-04-10T09:54:50;99052.01921083136;;;17.768749523155563;44.78393224994278
71642;BME280;60657;50.122;14.468;2023-04-10T09:58:04;99048.0610903425;;;17.710002288853282;44.34905012588693
71642;BME280;60657;50.122;14.468;2023-04-10T10:01:16;99044.09664733535;;;17.266727702754253;44.70572976272221
71642;BME280;60657;50.122;14.468;2023-04-10T10:04:29;99029.19585527938;;;17.84885938811322;44.488288700694284
71642;BME280;60657;50.122;14.468;2023-04-10T10:07:43;99021.89671960085;;;18.131914244296944;43.4983596551461
71642;BME280;60657;50.122;14.468;2023-04-10T10:10:58;99022.26242396847;;;18.802166781109328;42.31197070267796
71642;BME280;60657;50.122;14.468;2023-04-10T10:14:16;99021.49603304199;;;18.252079041733424;41.78744182497902
71642;BME280;60657;50.122;14.468;2023-04-10T10:17:33;99019.70747777291;;;18.78347447928588;41.486076142519266
71642;BME280;60657;50.122;14.468;2023-04-10T10:20:49;99009.19965741345;;;18.00106813153277;42.09834439612421
71642;BME280;60657;50.122;14.468;2023-04-10T10:24:06;99012.05954183411;;;18.171969176775768;42.55230029755093
71642;BME280;60657;50.122;14.468;2023-04-10T10:27:19;99019.37647637294;;;17.926298924238957;42.75829709315633
71642;BME280;60657;50.122;14.468;2023-04-10T10:30:32;99002.4636549309;;;18.452353704127567;42.8212405584802
71642;BME280;60657;50.122;14.468;2023-04-10T10:33:45;98994.25529628624;;;18.1025406271458;43.56321049820706
71642;BME280;60657;50.122;14.468;2023-04-10T10:36:58;98988.28776083092;;;18.286793316548412;42.60952162966354
71642;BME280;60657;50.122;14.468;2023-04-10T10:40:11;99002.00424901527;;;18.107881284809643;42.63622491798276
71642;BME280;60657;50.122;14.468;2023-04-10T10:43:33;99001.24205561938;;;17.69398031586175;43.752040894178684
71642;BME280;60657;50.122;14.468;2023-04-10T10:46:59;98991.74030376364;;;18.030441748683913;43.92370489051652
71642;BME280;60657;50.122;14.468;2023-04-10T10:50:19;98997.80855894256;;;17.93430991073472;43.87602044708934
71642;BME280;60657;50.122;14.468;2023-04-10T10:53:34;98981.6153596931;;;18.607232776379035;43.03677424277104
71642;BME280;60657;50.122;14.468;2023-04-10T10:56:48;98969.72425960263;;;19.41100175478752;41.37544823376822
71642;BME280;60657;50.122;14.468;2023-04-10T11:00:01;98964.88139393713;;;19.81956206607157;40.11467154955368
71642;BME280;60657;50.122;14.468;2023-04-10T11:03:29;98959.7066746048;;;19.76081483176928;40.261539635309376
71642;BME280;60657;50.122;14.468;2023-04-10T11:06:49;98954.06385421351;;;19.637979705500882;40.45227740901808
71642;BME280;60657;50.122;14.468;2023-04-10T11:10:02;98946.81367323513;;;20.252155336842904;39.13427939269093
71642;BME280;60657;50.122;14.468;2023-04-10T11:13:15;98943.58466234789;;;20.070572976272217;39.317387655451284
71642;BME280;60657;50.122;14.468;2023-04-10T11:16:45;98943.87578941841;;;19.44838635843442;40.496147096971086
71642;BME280;60657;50.122;14.468;2023-04-10T11:19:58;98937.48407114822;;;19.52315556572823;41.03212024109255
71642;BME280;60657;50.122;14.468;2023-04-10T11:23:11;98932.06944925115;;;19.461738002594032;39.878156710154876
71642;BME280;60657;50.122;14.468;2023-04-10T11:26:34;98926.94351524682;;;19.341573205157545;40.57625696192874
71642;BME280;60657;50.122;14.468;2023-04-10T11:29:47;98919.24789620223;;;19.459067673762107;40.13183794918746
71642;BME280;60657;50.122;14.468;2023-04-10T11:33:00;98914.24237294322;;;20.228122377355618;39.635919737544825
71642;BME280;60657;50.122;14.468;2023-04-10T11:36:14;98893.44197505;;;20.49248493171588;36.845426108186466
71642;BME280;60657;50.122;14.468;2023-04-10T11:39:27;98891.60961861988;;;20.794232089723053;36.0157167925536
71642;BME280;60657;50.122;14.468;2023-04-10T11:42:40;98902.87143075027;;;20.764858472571902;35.77729457541771
71642;BME280;60657;50.122;14.468;2023-04-10T11:46:00;98895.15359952941;;;20.34561684596018;36.66803997863737
71642;BME280;60657;50.122;14.468;2023-04-10T11:49:16;98910.59596675483;;;18.810177767605097;38.178683146410314